sensor_id;sensor_type;location;lat;lon;timestamp;pressure;altitude;pressure_sealevel;temperature;humidity
68506;BME280;55509;50.680;17.942;2023-02-12T00:00:14;101076.89;;;4.24;97.13
68506;BME280;55509;50.680;17.942;2023-02-12T00:03:36;101084.06;;;4.25;96.99
68506;BME280;55509;50.680;17.942;2023-02-12T00:06:38;101087.41;;;4.27;96.99
68506;BME280;55509;50.680;17.942;2023-02-12T00:09:40;101089.70;;;4.29;96.91
68506;BME280;55509;50.680;17.942;2023-02-12T00:12:42;101094.09;;;4.30;96.74
68506;BME280;55509;50.680;17.942;2023-02-12T00:15:43;101088.87;;;4.30;96.93
68506;BME280;55509;50.680;17.942;2023-02-12T00:18:45;101085.90;;;4.30;96.99
68506;BME280;55509;50.680;17.942;2023-02-12T00:21:47;101089.70;;;4.29;97.06
68506;BME280;55509;50.680;17.942;2023-02-12T00:24:48;101086.88;;;4.26;97.01
68506;BME280;55509;50.680;17.942;2023-02-12T00:27:50;101090.10;;;4.23;97.12
68506;BME280;55509;50.680;17.942;2023-02-12T00:30:51;101096.81;;;4.19;96.87
68506;BME280;55509;50.680;17.942;2023-02-12T00:33:53;101096.94;;;4.16;96.91
68506;BME280;55509;50.680;17.942;2023-02-12T00:36:55;101097.77;;;4.13;96.96
68506;BME280;55509;50.680;17.942;2023-02-12T00:39:56;101100.73;;;4.14;97.06
68506;BME280;55509;50.680;17.942;2023-02-12T00:42:58;101100.23;;;4.15;97.16
68506;BME280;55509;50.680;17.942;2023-02-12T00:45:59;101102.05;;;4.20;97.33
68506;BME280;55509;50.680;17.942;2023-02-12T00:49:01;101108.20;;;4.22;97.23
68506;BME280;55509;50.680;17.942;2023-02-12T00:52:03;101107.36;;;4.24;97.15
68506;BME280;55509;50.680;17.942;2023-02-12T00:55:05;101110.74;;;4.27;96.96
68506;BME280;55509;50.680;17.942;2023-02-12T00:58:07;101114.75;;;4.28;97.07
68506;BME280;55509;50.680;17.942;2023-02-12T01:01:08;101113.86;;;4.27;96.93
68506;BME280;55509;50.680;17.942;2023-02-12T01:04:10;101115.73;;;4.25;97.03
68506;BME280;55509;50.680;17.942;2023-02-12T01:07:11;101120.39;;;4.22;97.32
68506;BME280;55509;50.680;17.942;2023-02-12T01:10:13;101121.54;;;4.18;97.17
68506;BME280;55509;50.680;17.942;2023-02-12T01:13:15;101125.13;;;4.15;97.20
68506;BME280;55509;50.680;17.942;2023-02-12T01:16:18;101130.67;;;4.14;97.08
68506;BME280;55509;50.680;17.942;2023-02-12T01:19:21;101138.55;;;4.16;97.47
68506;BME280;55509;50.680;17.942;2023-02-12T01:22:22;101136.69;;;4.19;97.64
68506;BME280;55509;50.680;17.942;2023-02-12T01:25:23;101145.82;;;4.22;97.66
68506;BME280;55509;50.680;17.942;2023-02-12T01:28:25;101143.76;;;4.24;97.53
68506;BME280;55509;50.680;17.942;2023-02-12T01:31:29;101145.89;;;4.25;97.46
68506;BME280;55509;50.680;17.942;2023-02-12T01:34:30;101149.41;;;4.28;97.63
68506;BME280;55509;50.680;17.942;2023-02-12T01:37:33;101156.72;;;4.27;97.88
68506;BME280;55509;50.680;17.942;2023-02-12T01:40:35;101154.61;;;4.26;97.70
68506;BME280;55509;50.680;17.942;2023-02-12T01:43:38;101158.92;;;4.24;97.84
68506;BME280;55509;50.680;17.942;2023-02-12T01:46:40;101158.94;;;4.25;98.07
68506;BME280;55509;50.680;17.942;2023-02-12T01:49:42;101161.77;;;4.27;97.72
68506;BME280;55509;50.680;17.942;2023-02-12T01:52:46;101156.39;;;4.28;97.86
68506;BME280;55509;50.680;17.942;2023-02-12T01:55:50;101168.45;;;4.30;97.61
68506;BME280;55509;50.680;17.942;2023-02-12T01:58:53;101164.98;;;4.30;97.80
68506;BME280;55509;50.680;17.942;2023-02-12T02:01:57;101165.67;;;4.31;97.88
68506;BME280;55509;50.680;17.942;2023-02-12T02:05:00;101173.83;;;4.29;98.15
68506;BME280;55509;50.680;17.942;2023-02-12T02:08:03;101180.04;;;4.26;98.13
68506;BME280;55509;50.680;17.942;2023-02-12T02:11:04;101182.29;;;4.26;97.84
68506;BME280;55509;50.680;17.942;2023-02-12T02:14:26;101176.52;;;4.25;97.62
68506;BME280;55509;50.680;17.942;2023-02-12T02:27:14;101181.29;;;4.28;97.49
68506;BME280;55509;50.680;17.942;2023-02-12T02:33:38;101192.66;;;4.23;97.34
68506;BME280;55509;50.680;17.942;2023-02-12T02:36:47;101193.25;;;4.17;97.35
68506;BME280;55509;50.680;17.942;2023-02-12T02:43:14;101199.66;;;4.16;97.40
68506;BME280;55509;50.680;17.942;2023-02-12T02:46:28;101211.16;;;4.17;97.45
68506;BME280;55509;50.680;17.942;2023-02-12T02:49:32;101213.09;;;4.17;97.35
68506;BME280;55509;50.680;17.942;2023-02-12T02:52:45;101219.56;;;4.18;97.39
68506;BME280;55509;50.680;17.942;2023-02-12T02:55:50;101220.30;;;4.21;97.48
68506;BME280;55509;50.680;17.942;2023-02-12T02:59:00;101223.43;;;4.20;97.49
68506;BME280;55509;50.680;17.942;2023-02-12T03:02:39;101228.25;;;4.18;97.39
68506;BME280;55509;50.680;17.942;2023-02-12T03:05:33;101233.73;;;4.13;97.50
68506;BME280;55509;50.680;17.942;2023-02-12T03:08:46;101235.58;;;4.10;97.62
68506;BME280;55509;50.680;17.942;2023-02-12T03:11:51;101240.92;;;4.09;97.53
68506;BME280;55509;50.680;17.942;2023-02-12T03:15:13;101247.20;;;4.08;97.60
68506;BME280;55509;50.680;17.942;2023-02-12T03:18:19;101247.41;;;4.11;97.64
68506;BME280;55509;50.680;17.942;2023-02-12T03:21:27;101251.12;;;4.13;97.67
68506;BME280;55509;50.680;17.942;2023-02-12T03:27:37;101265.51;;;4.17;97.65
68506;BME280;55509;50.680;17.942;2023-02-12T03:40:19;101286.06;;;4.26;97.29
68506;BME280;55509;50.680;17.942;2023-02-12T03:43:22;101284.40;;;4.21;97.17
68506;BME280;55509;50.680;17.942;2023-02-12T03:52:46;101298.70;;;4.08;97.43
68506;BME280;55509;50.680;17.942;2023-02-12T03:55:51;101307.81;;;4.03;97.39
68506;BME280;55509;50.680;17.942;2023-02-12T03:58:54;101313.20;;;4.02;97.41
68506;BME280;55509;50.680;17.942;2023-02-12T04:01:56;101312.88;;;4.03;97.60
68506;BME280;55509;50.680;17.942;2023-02-12T04:05:03;101315.02;;;4.06;97.65
68506;BME280;55509;50.680;17.942;2023-02-12T04:08:05;101317.18;;;4.09;97.67
68506;BME280;55509;50.680;17.942;2023-02-12T04:14:13;101321.30;;;4.13;97.55
68506;BME280;55509;50.680;17.942;2023-02-12T04:17:25;101329.84;;;4.14;97.21
68506;BME280;55509;50.680;17.942;2023-02-12T04:20:34;101329.88;;;4.15;97.46
68506;BME280;55509;50.680;17.942;2023-02-12T04:32:45;101343.23;;;4.13;97.34
68506;BME280;55509;50.680;17.942;2023-02-12T04:35:51;101352.96;;;4.13;97.55
68506;BME280;55509;50.680;17.942;2023-02-12T04:38:56;101353.41;;;4.09;97.34
68506;BME280;55509;50.680;17.942;2023-02-12T04:41:59;101359.89;;;4.04;97.19
68506;BME280;55509;50.680;17.942;2023-02-12T04:45:01;101365.70;;;4.00;97.10
68506;BME280;55509;50.680;17.942;2023-02-12T04:48:03;101369.76;;;3.95;97.22
68506;BME280;55509;50.680;17.942;2023-02-12T04:51:05;101374.73;;;3.92;97.22
68506;BME280;55509;50.680;17.942;2023-02-12T04:54:06;101372.38;;;3.88;97.28
68506;BME280;55509;50.680;17.942;2023-02-12T04:57:08;101378.73;;;3.85;97.31
68506;BME280;55509;50.680;17.942;2023-02-12T05:00:13;101383.01;;;3.82;97.42
68506;BME280;55509;50.680;17.942;2023-02-12T05:03:14;101388.11;;;3.78;97.40
68506;BME280;55509;50.680;17.942;2023-02-12T05:06:16;101390.46;;;3.75;97.20
68506;BME280;55509;50.680;17.942;2023-02-12T05:09:18;101398.47;;;3.75;97.48
68506;BME280;55509;50.680;17.942;2023-02-12T05:12:20;101399.05;;;3.78;97.49
68506;BME280;55509;50.680;17.942;2023-02-12T05:15:22;101400.40;;;3.83;97.54
68506;BME280;55509;50.680;17.942;2023-02-12T05:18:23;101404.86;;;3.86;97.60
68506;BME280;55509;50.680;17.942;2023-02-12T05:21:25;101410.70;;;3.89;97.60
68506;BME280;55509;50.680;17.942;2023-02-12T05:24:26;101411.99;;;3.93;97.64
68506;BME280;55509;50.680;17.942;2023-02-12T05:27:28;101411.95;;;3.98;97.72
68506;BME280;55509;50.680;17.942;2023-02-12T05:30:29;101416.41;;;4.02;97.90
68506;BME280;55509;50.680;17.942;2023-02-12T05:33:31;101421.70;;;4.04;97.96
68506;BME280;55509;50.680;17.942;2023-02-12T05:36:33;101421.69;;;4.03;97.82
68506;BME280;55509;50.680;17.942;2023-02-12T05:39:34;101423.87;;;4.01;97.60
68506;BME280;55509;50.680;17.942;2023-02-12T05:42:36;101426.42;;;3.99;97.65
68506;BME280;55509;50.680;17.942;2023-02-12T05:45:38;101437.69;;;3.97;97.96
68506;BME280;55509;50.680;17.942;2023-02-12T05:48:41;101438.30;;;3.94;97.73
68506;BME280;55509;50.680;17.942;2023-02-12T05:51:43;101444.14;;;3.91;97.95
68506;BME280;55509;50.680;17.942;2023-02-12T05:54:47;101453.52;;;3.90;97.71
68506;BME280;55509;50.680;17.942;2023-02-12T05:57:49;101454.59;;;3.91;97.73
68506;BME280;55509;50.680;17.942;2023-02-12T06:00:51;101452.75;;;3.94;97.74
68506;BME280;55509;50.680;17.942;2023-02-12T06:03:52;101455.44;;;3.96;97.81
68506;BME280;55509;50.680;17.942;2023-02-12T06:06:54;101455.83;;;3.98;97.69
68506;BME280;55509;50.680;17.942;2023-02-12T06:09:56;101464.79;;;4.01;97.85
68506;BME280;55509;50.680;17.942;2023-02-12T06:12:58;101476.78;;;4.01;97.71
68506;BME280;55509;50.680;17.942;2023-02-12T06:15:59;101484.77;;;4.00;97.75
68506;BME280;55509;50.680;17.942;2023-02-12T06:19:02;101490.10;;;3.97;97.91
68506;BME280;55509;50.680;17.942;2023-02-12T06:22:04;101496.11;;;3.95;97.77
68506;BME280;55509;50.680;17.942;2023-02-12T06:25:06;101502.31;;;3.92;97.78
68506;BME280;55509;50.680;17.942;2023-02-12T06:28:07;101508.70;;;3.90;97.63
68506;BME280;55509;50.680;17.942;2023-02-12T06:34:19;101518.42;;;3.83;97.39
68506;BME280;55509;50.680;17.942;2023-02-12T06:37:21;101522.86;;;3.81;97.48
68506;BME280;55509;50.680;17.942;2023-02-12T06:40:22;101527.51;;;3.78;97.54
68506;BME280;55509;50.680;17.942;2023-02-12T06:43:24;101534.23;;;3.76;97.61
68506;BME280;55509;50.680;17.942;2023-02-12T06:46:25;101535.11;;;3.77;97.69
68506;BME280;55509;50.680;17.942;2023-02-12T06:49:27;101536.79;;;3.81;97.65
68506;BME280;55509;50.680;17.942;2023-02-12T06:52:28;101544.11;;;3.87;97.67
68506;BME280;55509;50.680;17.942;2023-02-12T06:55:30;101548.86;;;3.95;97.83
68506;BME280;55509;50.680;17.942;2023-02-12T06:58:31;101551.57;;;4.04;97.93
68506;BME280;55509;50.680;17.942;2023-02-12T07:01:33;101557.80;;;4.09;97.41
68506;BME280;55509;50.680;17.942;2023-02-12T07:04:36;101562.13;;;4.14;97.30
68506;BME280;55509;50.680;17.942;2023-02-12T07:07:37;101567.81;;;4.19;97.30
68506;BME280;55509;50.680;17.942;2023-02-12T07:10:39;101579.77;;;4.16;96.99
68506;BME280;55509;50.680;17.942;2023-02-12T07:13:40;101586.27;;;4.12;96.69
68506;BME280;55509;50.680;17.942;2023-02-12T07:16:42;101595.08;;;4.04;96.01
68506;BME280;55509;50.680;17.942;2023-02-12T07:19:44;101595.71;;;3.96;95.61
68506;BME280;55509;50.680;17.942;2023-02-12T07:22:45;101593.26;;;3.95;95.37
68506;BME280;55509;50.680;17.942;2023-02-12T07:25:54;101595.25;;;3.98;95.12
68506;BME280;55509;50.680;17.942;2023-02-12T07:28:55;101597.45;;;4.01;94.65
68506;BME280;55509;50.680;17.942;2023-02-12T07:31:57;101597.87;;;4.04;94.34
68506;BME280;55509;50.680;17.942;2023-02-12T07:34:59;101603.16;;;4.12;94.10
68506;BME280;55509;50.680;17.942;2023-02-12T07:38:01;101604.59;;;4.20;93.71
68506;BME280;55509;50.680;17.942;2023-02-12T07:41:09;101610.34;;;4.20;93.17
68506;BME280;55509;50.680;17.942;2023-02-12T07:44:12;101614.65;;;4.18;93.18
68506;BME280;55509;50.680;17.942;2023-02-12T07:47:14;101620.09;;;4.13;92.75
68506;BME280;55509;50.680;17.942;2023-02-12T07:50:16;101617.93;;;4.05;92.20
68506;BME280;55509;50.680;17.942;2023-02-12T07:53:18;101616.27;;;4.02;92.25
68506;BME280;55509;50.680;17.942;2023-02-12T07:56:20;101617.96;;;4.06;92.55
68506;BME280;55509;50.680;17.942;2023-02-12T07:59:22;101622.42;;;4.10;92.37
68506;BME280;55509;50.680;17.942;2023-02-12T08:02:23;101627.43;;;4.14;92.81
68506;BME280;55509;50.680;17.942;2023-02-12T08:05:26;101632.52;;;4.22;92.57
68506;BME280;55509;50.680;17.942;2023-02-12T08:08:28;101633.30;;;4.25;92.29
68506;BME280;55509;50.680;17.942;2023-02-12T08:11:29;101636.67;;;4.28;92.32
68506;BME280;55509;50.680;17.942;2023-02-12T08:14:32;101638.37;;;4.31;92.09
68506;BME280;55509;50.680;17.942;2023-02-12T08:17:33;101636.40;;;4.36;91.50
68506;BME280;55509;50.680;17.942;2023-02-12T08:20:35;101635.60;;;4.32;90.96
68506;BME280;55509;50.680;17.942;2023-02-12T08:23:36;101636.61;;;4.31;90.90
68506;BME280;55509;50.680;17.942;2023-02-12T08:26:38;101637.29;;;4.36;90.57
68506;BME280;55509;50.680;17.942;2023-02-12T08:29:40;101640.29;;;4.38;89.93
68506;BME280;55509;50.680;17.942;2023-02-12T08:32:41;101638.73;;;4.38;89.84
68506;BME280;55509;50.680;17.942;2023-02-12T08:35:43;101640.48;;;4.45;89.46
68506;BME280;55509;50.680;17.942;2023-02-12T08:38:44;101640.66;;;4.51;89.21
68506;BME280;55509;50.680;17.942;2023-02-12T08:41:47;101648.34;;;4.57;88.77
68506;BME280;55509;50.680;17.942;2023-02-12T08:44:48;101654.15;;;4.73;88.61
68506;BME280;55509;50.680;17.942;2023-02-12T08:47:50;101653.43;;;4.92;88.08
68506;BME280;55509;50.680;17.942;2023-02-12T08:50:52;101655.33;;;5.04;87.07
68506;BME280;55509;50.680;17.942;2023-02-12T08:53:54;101653.25;;;4.98;86.26
68506;BME280;55509;50.680;17.942;2023-02-12T08:56:56;101663.23;;;4.87;86.20
68506;BME280;55509;50.680;17.942;2023-02-12T08:59:58;101670.91;;;4.80;86.60
68506;BME280;55509;50.680;17.942;2023-02-12T09:03:00;101672.77;;;4.72;86.43
68506;BME280;55509;50.680;17.942;2023-02-12T09:06:02;101676.35;;;4.63;86.38
68506;BME280;55509;50.680;17.942;2023-02-12T09:09:04;101676.94;;;4.65;86.97
68506;BME280;55509;50.680;17.942;2023-02-12T09:12:07;101684.23;;;4.70;86.73
68506;BME280;55509;50.680;17.942;2023-02-12T09:15:08;101688.77;;;4.71;85.95
68506;BME280;55509;50.680;17.942;2023-02-12T09:18:11;101684.67;;;4.68;85.69
68506;BME280;55509;50.680;17.942;2023-02-12T09:21:14;101685.73;;;4.74;85.85
68506;BME280;55509;50.680;17.942;2023-02-12T09:24:17;101681.30;;;5.04;85.94
68506;BME280;55509;50.680;17.942;2023-02-12T09:27:18;101682.34;;;5.45;85.61
68506;BME280;55509;50.680;17.942;2023-02-12T09:30:19;101686.53;;;5.59;84.17
68506;BME280;55509;50.680;17.942;2023-02-12T09:33:21;101690.97;;;5.55;82.42
68506;BME280;55509;50.680;17.942;2023-02-12T09:36:23;101696.89;;;5.54;83.36
68506;BME280;55509;50.680;17.942;2023-02-12T09:39:26;101705.91;;;5.59;83.62
68506;BME280;55509;50.680;17.942;2023-02-12T09:45:37;101713.06;;;5.66;82.40
68506;BME280;55509;50.680;17.942;2023-02-12T09:51:44;101723.60;;;5.69;81.72
68506;BME280;55509;50.680;17.942;2023-02-12T09:54:49;101724.79;;;5.60;81.02
68506;BME280;55509;50.680;17.942;2023-02-12T09:57:51;101732.69;;;5.55;81.04
68506;BME280;55509;50.680;17.942;2023-02-12T10:00:52;101734.59;;;5.61;81.31
68506;BME280;55509;50.680;17.942;2023-02-12T10:03:54;101729.88;;;5.75;81.45
68506;BME280;55509;50.680;17.942;2023-02-12T10:13:21;101725.52;;;5.77;78.98
68506;BME280;55509;50.680;17.942;2023-02-12T10:26:42;101726.60;;;6.14;80.07
68506;BME280;55509;50.680;17.942;2023-02-12T10:29:36;101731.77;;;6.34;80.01
68506;BME280;55509;50.680;17.942;2023-02-12T10:32:40;101736.73;;;6.37;79.72
68506;BME280;55509;50.680;17.942;2023-02-12T10:35:46;101735.46;;;6.35;79.96
68506;BME280;55509;50.680;17.942;2023-02-12T10:38:49;101740.23;;;6.29;78.79
68506;BME280;55509;50.680;17.942;2023-02-12T10:41:57;101742.09;;;6.11;78.68
68506;BME280;55509;50.680;17.942;2023-02-12T10:45:01;101734.66;;;6.01;78.75
68506;BME280;55509;50.680;17.942;2023-02-12T10:48:16;101732.27;;;6.03;79.22
68506;BME280;55509;50.680;17.942;2023-02-12T10:51:24;101736.01;;;6.13;79.65
68506;BME280;55509;50.680;17.942;2023-02-12T10:54:35;101729.30;;;6.17;79.75
68506;BME280;55509;50.680;17.942;2023-02-12T10:57:37;101720.66;;;6.29;80.19
68506;BME280;55509;50.680;17.942;2023-02-12T11:00:39;101721.69;;;6.36;79.80
68506;BME280;55509;50.680;17.942;2023-02-12T11:03:40;101716.02;;;6.33;79.42
68506;BME280;55509;50.680;17.942;2023-02-12T11:06:44;101713.11;;;6.27;79.75
68506;BME280;55509;50.680;17.942;2023-02-12T11:09:57;101710.36;;;6.37;80.58
68506;BME280;55509;50.680;17.942;2023-02-12T11:12:59;101713.14;;;6.53;79.80
68506;BME280;55509;50.680;17.942;2023-02-12T11:16:01;101718.56;;;6.62;79.31
68506;BME280;55509;50.680;17.942;2023-02-12T11:19:07;101717.75;;;6.57;78.49
68506;BME280;55509;50.680;17.942;2023-02-12T11:22:18;101716.96;;;6.61;78.23
68506;BME280;55509;50.680;17.942;2023-02-12T11:25:20;101719.31;;;6.73;78.09
68506;BME280;55509;50.680;17.942;2023-02-12T11:28:22;101715.33;;;6.84;78.19
68506;BME280;55509;50.680;17.942;2023-02-12T11:31:33;101714.23;;;7.09;77.98
68506;BME280;55509;50.680;17.942;2023-02-12T11:34:35;101713.17;;;7.94;77.28
68506;BME280;55509;50.680;17.942;2023-02-12T11:37:41;101709.71;;;9.01;75.54
68506;BME280;55509;50.680;17.942;2023-02-12T11:40:44;101708.28;;;9.01;74.21
68506;BME280;55509;50.680;17.942;2023-02-12T11:43:46;101712.45;;;9.12;73.48
68506;BME280;55509;50.680;17.942;2023-02-12T11:46:53;101716.52;;;9.32;72.69
68506;BME280;55509;50.680;17.942;2023-02-12T11:50:04;101708.06;;;9.52;71.74
68506;BME280;55509;50.680;17.942;2023-02-12T11:53:08;101704.98;;;10.09;70.86
68506;BME280;55509;50.680;17.942;2023-02-12T11:56:10;101697.96;;;10.87;70.56
68506;BME280;55509;50.680;17.942;2023-02-12T11:59:20;101696.64;;;11.31;69.57
68506;BME280;55509;50.680;17.942;2023-02-12T12:02:30;101694.54;;;11.46;67.77
68506;BME280;55509;50.680;17.942;2023-02-12T12:05:35;101693.23;;;10.92;67.66
68506;BME280;55509;50.680;17.942;2023-02-12T12:08:39;101695.05;;;10.56;67.14
68506;BME280;55509;50.680;17.942;2023-02-12T12:11:53;101701.64;;;10.10;67.54
68506;BME280;55509;50.680;17.942;2023-02-12T12:15:20;101710.30;;;9.44;68.28
68506;BME280;55509;50.680;17.942;2023-02-12T12:18:53;101710.90;;;8.99;69.36
68506;BME280;55509;50.680;17.942;2023-02-12T12:31:42;101712.92;;;8.76;70.23
68506;BME280;55509;50.680;17.942;2023-02-12T12:34:44;101713.48;;;8.64;71.21
68506;BME280;55509;50.680;17.942;2023-02-12T12:37:47;101709.71;;;8.57;71.66
68506;BME280;55509;50.680;17.942;2023-02-12T12:40:54;101713.44;;;8.49;71.80
68506;BME280;55509;50.680;17.942;2023-02-12T13:03:57;101699.40;;;8.35;70.68
68506;BME280;55509;50.680;17.942;2023-02-12T13:10:45;101694.77;;;8.55;71.49
68506;BME280;55509;50.680;17.942;2023-02-12T13:13:41;101690.13;;;8.75;71.36
68506;BME280;55509;50.680;17.942;2023-02-12T13:16:45;101691.94;;;8.98;71.07
68506;BME280;55509;50.680;17.942;2023-02-12T13:29:50;101691.91;;;8.96;69.77
68506;BME280;55509;50.680;17.942;2023-02-12T13:32:32;101692.45;;;8.96;69.71
68506;BME280;55509;50.680;17.942;2023-02-12T13:35:38;101694.90;;;8.79;70.02
68506;BME280;55509;50.680;17.942;2023-02-12T13:42:15;101691.09;;;8.28;71.39
68506;BME280;55509;50.680;17.942;2023-02-12T13:49:01;101700.34;;;7.88;72.27
68506;BME280;55509;50.680;17.942;2023-02-12T13:52:05;101699.84;;;7.57;72.46
68506;BME280;55509;50.680;17.942;2023-02-12T13:55:20;101699.83;;;7.35;73.28
68506;BME280;55509;50.680;17.942;2023-02-12T14:01:43;101698.87;;;7.11;74.36
68506;BME280;55509;50.680;17.942;2023-02-12T14:04:54;101700.97;;;7.01;74.39
68506;BME280;55509;50.680;17.942;2023-02-12T14:07:58;101696.70;;;6.97;75.57
68506;BME280;55509;50.680;17.942;2023-02-12T14:11:07;101695.65;;;6.97;75.32
68506;BME280;55509;50.680;17.942;2023-02-12T14:14:09;101691.81;;;6.99;75.00
68506;BME280;55509;50.680;17.942;2023-02-12T14:20:34;101694.98;;;6.90;75.36
68506;BME280;55509;50.680;17.942;2023-02-12T14:23:39;101692.86;;;6.89;75.47
68506;BME280;55509;50.680;17.942;2023-02-12T14:26:46;101695.69;;;6.90;75.35
68506;BME280;55509;50.680;17.942;2023-02-12T14:30:17;101695.13;;;6.98;75.75
68506;BME280;55509;50.680;17.942;2023-02-12T14:33:23;101695.73;;;7.01;75.33
68506;BME280;55509;50.680;17.942;2023-02-12T14:39:33;101702.09;;;6.96;75.10
68506;BME280;55509;50.680;17.942;2023-02-12T14:45:37;101707.84;;;6.85;75.41
68506;BME280;55509;50.680;17.942;2023-02-12T14:51:41;101710.45;;;6.67;75.92
68506;BME280;55509;50.680;17.942;2023-02-12T14:57:45;101710.74;;;6.48;76.61
68506;BME280;55509;50.680;17.942;2023-02-12T15:00:48;101711.63;;;6.40;77.17
68506;BME280;55509;50.680;17.942;2023-02-12T15:03:51;101716.64;;;6.29;77.40
68506;BME280;55509;50.680;17.942;2023-02-12T15:07:06;101722.42;;;6.22;77.75
68506;BME280;55509;50.680;17.942;2023-02-12T15:10:18;101722.48;;;6.16;77.89
68506;BME280;55509;50.680;17.942;2023-02-12T15:16:33;101722.21;;;6.12;78.22
68506;BME280;55509;50.680;17.942;2023-02-12T15:22:41;101714.36;;;6.13;78.23
68506;BME280;55509;50.680;17.942;2023-02-12T15:25:43;101715.49;;;6.09;78.18
68506;BME280;55509;50.680;17.942;2023-02-12T15:28:45;101717.90;;;6.01;78.56
68506;BME280;55509;50.680;17.942;2023-02-12T15:31:55;101722.23;;;5.92;78.53
68506;BME280;55509;50.680;17.942;2023-02-12T15:34:57;101725.86;;;5.83;78.71
68506;BME280;55509;50.680;17.942;2023-02-12T15:37:58;101723.06;;;5.75;79.25
68506;BME280;55509;50.680;17.942;2023-02-12T15:41:02;101722.34;;;5.67;79.41
68506;BME280;55509;50.680;17.942;2023-02-12T15:44:18;101726.88;;;5.60;79.69
68506;BME280;55509;50.680;17.942;2023-02-12T15:47:20;101726.33;;;5.52;79.67
68506;BME280;55509;50.680;17.942;2023-02-12T15:50:25;101721.45;;;5.45;80.11
68506;BME280;55509;50.680;17.942;2023-02-12T15:53:27;101717.64;;;5.40;80.28
68506;BME280;55509;50.680;17.942;2023-02-12T15:56:31;101709.68;;;5.36;80.75
68506;BME280;55509;50.680;17.942;2023-02-12T15:59:34;101714.21;;;5.29;80.91
68506;BME280;55509;50.680;17.942;2023-02-12T16:02:36;101721.55;;;5.23;81.07
68506;BME280;55509;50.680;17.942;2023-02-12T16:05:37;101722.25;;;5.16;81.57
68506;BME280;55509;50.680;17.942;2023-02-12T16:08:39;101722.21;;;5.08;81.66
68506;BME280;55509;50.680;17.942;2023-02-12T16:11:43;101728.66;;;5.01;81.78
68506;BME280;55509;50.680;17.942;2023-02-12T16:14:46;101727.04;;;4.93;82.48
68506;BME280;55509;50.680;17.942;2023-02-12T16:17:48;101732.40;;;4.85;82.51
68506;BME280;55509;50.680;17.942;2023-02-12T16:21:00;101741.77;;;4.77;82.93
68506;BME280;55509;50.680;17.942;2023-02-12T16:24:02;101741.89;;;4.69;83.09
68506;BME280;55509;50.680;17.942;2023-02-12T16:33:33;101743.10;;;4.39;83.85
68506;BME280;55509;50.680;17.942;2023-02-12T16:36:35;101742.16;;;4.31;84.28
68506;BME280;55509;50.680;17.942;2023-02-12T16:45:51;101749.30;;;4.25;84.95
68506;BME280;55509;50.680;17.942;2023-02-12T16:49:02;101753.71;;;4.27;84.99
68506;BME280;55509;50.680;17.942;2023-02-12T16:52:17;101758.33;;;4.29;85.08
68506;BME280;55509;50.680;17.942;2023-02-12T16:55:19;101754.02;;;4.32;85.37
68506;BME280;55509;50.680;17.942;2023-02-12T16:58:20;101757.92;;;4.34;85.31
68506;BME280;55509;50.680;17.942;2023-02-12T17:01:24;101767.13;;;4.33;85.33
68506;BME280;55509;50.680;17.942;2023-02-12T17:04:26;101769.00;;;4.32;85.46
68506;BME280;55509;50.680;17.942;2023-02-12T17:07:28;101770.69;;;4.30;85.80
68506;BME280;55509;50.680;17.942;2023-02-12T17:10:31;101772.16;;;4.27;85.85
68506;BME280;55509;50.680;17.942;2023-02-12T17:13:32;101774.16;;;4.24;85.94
68506;BME280;55509;50.680;17.942;2023-02-12T17:16:34;101767.62;;;4.21;85.95
68506;BME280;55509;50.680;17.942;2023-02-12T17:19:35;101765.92;;;4.17;86.17
68506;BME280;55509;50.680;17.942;2023-02-12T17:22:37;101769.37;;;4.15;86.20
68506;BME280;55509;50.680;17.942;2023-02-12T17:25:38;101762.83;;;4.18;86.52
68506;BME280;55509;50.680;17.942;2023-02-12T17:28:40;101761.68;;;4.21;86.41
68506;BME280;55509;50.680;17.942;2023-02-12T17:31:42;101762.50;;;4.25;86.49
68506;BME280;55509;50.680;17.942;2023-02-12T17:34:43;101759.96;;;4.27;86.67
68506;BME280;55509;50.680;17.942;2023-02-12T17:37:45;101759.33;;;4.29;86.75
68506;BME280;55509;50.680;17.942;2023-02-12T17:40:48;101760.19;;;4.28;86.79
68506;BME280;55509;50.680;17.942;2023-02-12T17:43:49;101757.02;;;4.27;86.96
68506;BME280;55509;50.680;17.942;2023-02-12T17:46:51;101750.61;;;4.23;86.98
68506;BME280;55509;50.680;17.942;2023-02-12T17:49:53;101752.73;;;4.18;87.21
68506;BME280;55509;50.680;17.942;2023-02-12T17:52:55;101751.88;;;4.13;87.06
68506;BME280;55509;50.680;17.942;2023-02-12T17:55:56;101748.98;;;4.10;87.45
68506;BME280;55509;50.680;17.942;2023-02-12T17:58:57;101749.09;;;4.07;87.53
68506;BME280;55509;50.680;17.942;2023-02-12T18:01:59;101745.88;;;4.04;87.73
68506;BME280;55509;50.680;17.942;2023-02-12T18:05:01;101748.05;;;4.02;87.80
68506;BME280;55509;50.680;17.942;2023-02-12T18:08:02;101749.05;;;4.01;87.91
68506;BME280;55509;50.680;17.942;2023-02-12T18:11:05;101743.70;;;4.02;87.88
68506;BME280;55509;50.680;17.942;2023-02-12T18:14:06;101744.63;;;4.04;87.95
68506;BME280;55509;50.680;17.942;2023-02-12T18:17:08;101739.05;;;4.04;88.00
68506;BME280;55509;50.680;17.942;2023-02-12T18:20:10;101740.98;;;4.04;87.94
68506;BME280;55509;50.680;17.942;2023-02-12T18:23:11;101739.14;;;4.06;88.13
68506;BME280;55509;50.680;17.942;2023-02-12T18:26:14;101741.10;;;4.08;88.16
68506;BME280;55509;50.680;17.942;2023-02-12T18:29:16;101733.13;;;4.04;88.11
68506;BME280;55509;50.680;17.942;2023-02-12T18:32:17;101734.99;;;3.97;88.20
68506;BME280;55509;50.680;17.942;2023-02-12T18:35:19;101729.85;;;3.88;88.44
68506;BME280;55509;50.680;17.942;2023-02-12T18:38:21;101728.72;;;3.80;88.42
68506;BME280;55509;50.680;17.942;2023-02-12T18:41:23;101732.01;;;3.74;88.85